sensor_id;sensor_type;location;lat;lon;timestamp;pressure;altitude;pressure_sealevel;temperature;humidity
5500;BME280;2772;42.700;23.304;2023-03-30T00:01:02;95671.88;;;7.77;63.53
5500;BME280;2772;42.700;23.304;2023-03-30T00:03:29;95674.28;;;7.73;62.66
5500;BME280;2772;42.700;23.304;2023-03-30T00:06:02;95663.91;;;7.82;63.71
5500;BME280;2772;42.700;23.304;2023-03-30T00:08:29;95662.81;;;7.83;65.57
5500;BME280;2772;42.700;23.304;2023-03-30T00:11:01;95664.69;;;7.82;67.72
5500;BME280;2772;42.700;23.304;2023-03-30T00:13:29;95660.03;;;7.64;63.34
5500;BME280;2772;42.700;23.304;2023-03-30T00:15:57;95666.91;;;7.65;62.95
5500;BME280;2772;42.700;23.304;2023-03-30T00:18:24;95660.34;;;7.53;63.94
5500;BME280;2772;42.700;23.304;2023-03-30T00:20:51;95669.63;;;7.55;63.34
5500;BME280;2772;42.700;23.304;2023-03-30T00:23:18;95657.97;;;7.46;63.94
5500;BME280;2772;42.700;23.304;2023-03-30T00:25:45;95665.44;;;7.39;64.86
5500;BME280;2772;42.700;23.304;2023-03-30T00:28:12;95659.06;;;7.40;65.55
5500;BME280;2772;42.700;23.304;2023-03-30T00:30:39;95660.13;;;7.44;67.07
5500;BME280;2772;42.700;23.304;2023-03-30T00:33:07;95665.47;;;7.34;68.11
5500;BME280;2772;42.700;23.304;2023-03-30T00:35:34;95661.53;;;7.22;69.09
5500;BME280;2772;42.700;23.304;2023-03-30T00:38:01;95665.00;;;7.17;71.87
5500;BME280;2772;42.700;23.304;2023-03-30T00:40:29;95662.44;;;7.02;73.75
5500;BME280;2772;42.700;23.304;2023-03-30T00:42:57;95669.31;;;6.98;76.33
5500;BME280;2772;42.700;23.304;2023-03-30T00:45:26;95662.44;;;6.97;78.36
5500;BME280;2772;42.700;23.304;2023-03-30T00:48:00;95649.53;;;6.81;81.28
5500;BME280;2772;42.700;23.304;2023-03-30T00:50:32;95662.97;;;6.89;82.64
5500;BME280;2772;42.700;23.304;2023-03-30T00:53:05;95666.69;;;6.88;84.28
5500;BME280;2772;42.700;23.304;2023-03-30T00:55:36;95660.88;;;6.81;85.71
5500;BME280;2772;42.700;23.304;2023-03-30T00:58:04;95663.78;;;6.85;87.11
5500;BME280;2772;42.700;23.304;2023-03-30T01:00:34;95674.13;;;6.76;88.25
5500;BME280;2772;42.700;23.304;2023-03-30T01:03:08;95664.88;;;6.79;87.75
5500;BME280;2772;42.700;23.304;2023-03-30T01:05:39;95664.06;;;6.83;87.27
5500;BME280;2772;42.700;23.304;2023-03-30T01:08:07;95662.22;;;6.84;86.58
5500;BME280;2772;42.700;23.304;2023-03-30T01:10:34;95658.25;;;6.81;87.26
5500;BME280;2772;42.700;23.304;2023-03-30T01:13:01;95656.66;;;6.85;87.50
5500;BME280;2772;42.700;23.304;2023-03-30T01:15:32;95661.69;;;6.82;88.02
5500;BME280;2772;42.700;23.304;2023-03-30T01:18:24;95670.16;;;6.79;87.82
5500;BME280;2772;42.700;23.304;2023-03-30T01:21:29;95664.88;;;6.74;89.62
5500;BME280;2772;42.700;23.304;2023-03-30T01:24:27;95664.66;;;6.60;90.57
5500;BME280;2772;42.700;23.304;2023-03-30T01:27:01;95663.56;;;6.61;91.50
5500;BME280;2772;42.700;23.304;2023-03-30T01:29:45;95664.38;;;6.62;92.15
5500;BME280;2772;42.700;23.304;2023-03-30T01:33:06;95668.88;;;6.61;94.05
5500;BME280;2772;42.700;23.304;2023-03-30T01:36:00;95669.13;;;6.49;96.38
5500;BME280;2772;42.700;23.304;2023-03-30T01:39:02;95679.75;;;6.44;97.75
5500;BME280;2772;42.700;23.304;2023-03-30T01:41:36;95685.28;;;6.33;99.27
5500;BME280;2772;42.700;23.304;2023-03-30T01:44:11;95677.34;;;6.28;100.00
5500;BME280;2772;42.700;23.304;2023-03-30T01:46:44;95676.84;;;6.21;100.00
5500;BME280;2772;42.700;23.304;2023-03-30T01:49:16;95669.16;;;6.29;100.00
5500;BME280;2772;42.700;23.304;2023-03-30T01:51:53;95657.50;;;6.35;99.90
5500;BME280;2772;42.700;23.304;2023-03-30T01:54:29;95666.50;;;6.29;100.00
5500;BME280;2772;42.700;23.304;2023-03-30T01:57:01;95671.53;;;6.36;99.46
5500;BME280;2772;42.700;23.304;2023-03-30T01:59:33;95679.75;;;6.44;98.99
5500;BME280;2772;42.700;23.304;2023-03-30T02:02:03;95674.72;;;6.43;97.67
5500;BME280;2772;42.700;23.304;2023-03-30T02:04:34;95676.28;;;6.44;95.39
5500;BME280;2772;42.700;23.304;2023-03-30T02:07:07;95681.31;;;6.51;93.86
5500;BME280;2772;42.700;23.304;2023-03-30T02:09:39;95675.75;;;6.57;93.12
5500;BME280;2772;42.700;23.304;2023-03-30T02:12:08;95684.50;;;6.53;93.07
5500;BME280;2772;42.700;23.304;2023-03-30T02:14:37;95680.53;;;6.50;93.57
5500;BME280;2772;42.700;23.304;2023-03-30T02:17:07;95677.88;;;6.50;93.32
5500;BME280;2772;42.700;23.304;2023-03-30T02:19:36;95678.41;;;6.52;94.44
5500;BME280;2772;42.700;23.304;2023-03-30T02:22:03;95674.16;;;6.56;93.75
5500;BME280;2772;42.700;23.304;2023-03-30T02:24:31;95680.78;;;6.54;95.37
5500;BME280;2772;42.700;23.304;2023-03-30T02:27:00;95668.38;;;6.49;96.71
5500;BME280;2772;42.700;23.304;2023-03-30T02:29:27;95660.44;;;6.49;98.45
5500;BME280;2772;42.700;23.304;2023-03-30T02:31:56;95675.75;;;6.47;99.67
5500;BME280;2772;42.700;23.304;2023-03-30T02:34:43;95685.28;;;6.53;100.00
5500;BME280;2772;42.700;23.304;2023-03-30T02:37:22;95686.63;;;6.56;100.00
5500;BME280;2772;42.700;23.304;2023-03-30T02:39:57;95674.69;;;6.48;100.00
5500;BME280;2772;42.700;23.304;2023-03-30T02:42:49;95676.53;;;6.58;100.00
5500;BME280;2772;42.700;23.304;2023-03-30T02:45:28;95697.44;;;6.59;100.00
5500;BME280;2772;42.700;23.304;2023-03-30T02:48:08;95683.16;;;6.55;100.00
5500;BME280;2772;42.700;23.304;2023-03-30T02:50:44;95682.09;;;6.51;100.00
5500;BME280;2772;42.700;23.304;2023-03-30T02:53:22;95695.09;;;6.53;100.00
5500;BME280;2772;42.700;23.304;2023-03-30T02:55:57;95694.03;;;6.54;100.00
5500;BME280;2772;42.700;23.304;2023-03-30T02:58:33;95681.59;;;6.54;100.00
5500;BME280;2772;42.700;23.304;2023-03-30T03:01:04;95690.56;;;6.58;100.00
5500;BME280;2772;42.700;23.304;2023-03-30T03:03:38;95694.25;;;6.62;100.00
5500;BME280;2772;42.700;23.304;2023-03-30T03:06:07;95698.50;;;6.63;100.00
5500;BME280;2772;42.700;23.304;2023-03-30T03:08:37;95696.41;;;6.60;100.00
5500;BME280;2772;42.700;23.304;2023-03-30T03:11:05;95702.50;;;6.51;100.00
5500;BME280;2772;42.700;23.304;2023-03-30T03:13:34;95701.16;;;6.53;100.00
5500;BME280;2772;42.700;23.304;2023-03-30T03:16:02;95697.19;;;6.56;100.00
5500;BME280;2772;42.700;23.304;2023-03-30T03:18:29;95706.97;;;6.50;100.00
5500;BME280;2772;42.700;23.304;2023-03-30T03:20:56;95701.69;;;6.50;100.00
5500;BME280;2772;42.700;23.304;2023-03-30T03:23:23;95706.44;;;6.48;100.00
5500;BME280;2772;42.700;23.304;2023-03-30T03:25:50;95709.38;;;6.41;100.00
5500;BME280;2772;42.700;23.304;2023-03-30T03:28:17;95700.88;;;6.29;100.00
5500;BME280;2772;42.700;23.304;2023-03-30T03:30:45;95706.72;;;6.36;100.00
5500;BME280;2772;42.700;23.304;2023-03-30T03:33:11;95709.38;;;6.31;100.00
5500;BME280;2772;42.700;23.304;2023-03-30T03:35:38;95710.44;;;6.30;100.00
5500;BME280;2772;42.700;23.304;2023-03-30T03:38:05;95696.94;;;6.27;100.00
5500;BME280;2772;42.700;23.304;2023-03-30T03:40:32;95708.56;;;6.21;100.00
5500;BME280;2772;42.700;23.304;2023-03-30T03:42:58;95714.38;;;6.23;100.00
5500;BME280;2772;42.700;23.304;2023-03-30T03:45:26;95709.88;;;6.23;100.00
5500;BME280;2772;42.700;23.304;2023-03-30T03:47:54;95721.25;;;6.24;100.00
5500;BME280;2772;42.700;23.304;2023-03-30T03:50:20;95723.13;;;6.33;100.00
5500;BME280;2772;42.700;23.304;2023-03-30T03:52:47;95726.56;;;6.39;100.00
5500;BME280;2772;42.700;23.304;2023-03-30T03:55:14;95727.63;;;6.38;100.00
5500;BME280;2772;42.700;23.304;2023-03-30T03:57:41;95730.28;;;6.43;100.00
5500;BME280;2772;42.700;23.304;2023-03-30T04:00:10;95729.97;;;6.49;100.00
5500;BME280;2772;42.700;23.304;2023-03-30T04:02:41;95724.44;;;6.46;100.00
5500;BME280;2772;42.700;23.304;2023-03-30T04:05:10;95728.66;;;6.47;100.00
5500;BME280;2772;42.700;23.304;2023-03-30T04:07:36;95725.50;;;6.45;100.00
5500;BME280;2772;42.700;23.304;2023-03-30T04:10:05;95729.72;;;6.51;100.00
5500;BME280;2772;42.700;23.304;2023-03-30T04:12:32;95721.00;;;6.45;100.00
5500;BME280;2772;42.700;23.304;2023-03-30T04:14:59;95724.72;;;6.39;100.00
5500;BME280;2772;42.700;23.304;2023-03-30T04:17:26;95718.88;;;6.37;100.00
5500;BME280;2772;42.700;23.304;2023-03-30T04:19:53;95722.56;;;6.26;100.00
5500;BME280;2772;42.700;23.304;2023-03-30T04:22:22;95720.47;;;6.23;100.00
5500;BME280;2772;42.700;23.304;2023-03-30T04:24:50;95726.28;;;6.40;100.00
5500;BME280;2772;42.700;23.304;2023-03-30T04:27:17;95715.44;;;6.32;100.00
5500;BME280;2772;42.700;23.304;2023-03-30T04:29:43;95712.00;;;6.36;100.00
5500;BME280;2772;42.700;23.304;2023-03-30T04:32:10;95715.97;;;6.44;100.00
5500;BME280;2772;42.700;23.304;2023-03-30T04:34:37;95720.22;;;6.35;100.00
5500;BME280;2772;42.700;23.304;2023-03-30T04:37:07;95722.59;;;6.36;100.00
5500;BME280;2772;42.700;23.304;2023-03-30T04:39:36;95721.28;;;6.44;100.00
5500;BME280;2772;42.700;23.304;2023-03-30T04:42:03;95719.69;;;6.38;100.00
5500;BME280;2772;42.700;23.304;2023-03-30T04:44:30;95724.44;;;6.41;100.00
5500;BME280;2772;42.700;23.304;2023-03-30T04:46:57;95728.66;;;6.37;100.00
5500;BME280;2772;42.700;23.304;2023-03-30T04:49:24;95730.25;;;6.48;100.00
5500;BME280;2772;42.700;23.304;2023-03-30T04:51:50;95715.44;;;6.42;100.00
5500;BME280;2772;42.700;23.304;2023-03-30T04:54:19;95727.59;;;6.53;100.00
5500;BME280;2772;42.700;23.304;2023-03-30T04:56:47;95734.75;;;6.58;100.00
5500;BME280;2772;42.700;23.304;2023-03-30T04:59:14;95733.94;;;6.72;100.00
5500;BME280;2772;42.700;23.304;2023-03-30T05:01:41;95736.06;;;6.70;100.00
5500;BME280;2772;42.700;23.304;2023-03-30T05:04:07;95742.94;;;6.76;100.00
5500;BME280;2772;42.700;23.304;2023-03-30T05:06:34;95748.50;;;6.85;100.00
5500;BME280;2772;42.700;23.304;2023-03-30T05:09:01;95748.72;;;6.93;100.00
5500;BME280;2772;42.700;23.304;2023-03-30T05:11:28;95736.31;;;6.89;100.00
5500;BME280;2772;42.700;23.304;2023-03-30T05:13:56;95747.44;;;6.86;100.00
5500;BME280;2772;42.700;23.304;2023-03-30T05:16:22;95747.97;;;6.88;100.00
5500;BME280;2772;42.700;23.304;2023-03-30T05:18:49;95754.56;;;6.90;100.00
5500;BME280;2772;42.700;23.304;2023-03-30T05:21:16;95749.53;;;6.99;100.00
5500;BME280;2772;42.700;23.304;2023-03-30T05:23:43;95734.97;;;7.06;100.00
5500;BME280;2772;42.700;23.304;2023-03-30T05:26:10;95746.09;;;7.08;100.00
5500;BME280;2772;42.700;23.304;2023-03-30T05:28:37;95735.75;;;7.12;100.00
5500;BME280;2772;42.700;23.304;2023-03-30T05:31:05;95739.22;;;7.02;100.00
5500;BME280;2772;42.700;23.304;2023-03-30T05:33:32;95741.56;;;7.14;100.00
5500;BME280;2772;42.700;23.304;2023-03-30T05:35:59;95737.06;;;7.14;100.00
5500;BME280;2772;42.700;23.304;2023-03-30T05:38:25;95736.53;;;7.17;100.00
5500;BME280;2772;42.700;23.304;2023-03-30T05:40:53;95735.44;;;7.28;100.00
5500;BME280;2772;42.700;23.304;2023-03-30T05:43:20;95730.91;;;7.34;100.00
5500;BME280;2772;42.700;23.304;2023-03-30T05:45:47;95757.13;;;7.35;100.00
5500;BME280;2772;42.700;23.304;2023-03-30T05:48:15;95749.22;;;7.25;100.00
5500;BME280;2772;42.700;23.304;2023-03-30T05:50:41;95736.47;;;7.32;100.00
5500;BME280;2772;42.700;23.304;2023-03-30T05:53:08;95740.72;;;7.28;100.00
5500;BME280;2772;42.700;23.304;2023-03-30T05:55:35;95750.78;;;7.26;100.00
5500;BME280;2772;42.700;23.304;2023-03-30T05:58:01;95747.06;;;7.32;100.00
5500;BME280;2772;42.700;23.304;2023-03-30T06:00:28;95754.50;;;7.30;100.00
5500;BME280;2772;42.700;23.304;2023-03-30T06:02:57;95751.81;;;7.40;100.00
5500;BME280;2772;42.700;23.304;2023-03-30T06:05:25;95755.53;;;7.39;100.00
5500;BME280;2772;42.700;23.304;2023-03-30T06:07:52;95762.41;;;7.45;100.00
5500;BME280;2772;42.700;23.304;2023-03-30T06:10:19;95759.69;;;7.60;100.00
5500;BME280;2772;42.700;23.304;2023-03-30T06:12:45;95753.06;;;7.63;100.00
5500;BME280;2772;42.700;23.304;2023-03-30T06:15:12;95770.78;;;7.72;100.00
5500;BME280;2772;42.700;23.304;2023-03-30T06:17:39;95770.81;;;7.67;100.00
5500;BME280;2772;42.700;23.304;2023-03-30T06:20:07;95773.19;;;7.64;100.00
5500;BME280;2772;42.700;23.304;2023-03-30T06:22:38;95778.81;;;7.47;100.00
5500;BME280;2772;42.700;23.304;2023-03-30T06:25:06;95778.56;;;7.44;100.00
5500;BME280;2772;42.700;23.304;2023-03-30T06:27:33;95777.75;;;7.48;100.00
5500;BME280;2772;42.700;23.304;2023-03-30T06:30:00;95776.66;;;7.54;100.00
5500;BME280;2772;42.700;23.304;2023-03-30T06:32:28;95776.66;;;7.64;100.00
5500;BME280;2772;42.700;23.304;2023-03-30T06:34:54;95768.13;;;7.72;100.00
5500;BME280;2772;42.700;23.304;2023-03-30T06:37:21;95773.19;;;7.69;100.00
5500;BME280;2772;42.700;23.304;2023-03-30T06:39:49;95763.34;;;7.74;100.00
5500;BME280;2772;42.700;23.304;2023-03-30T06:42:16;95778.41;;;7.89;100.00
5500;BME280;2772;42.700;23.304;2023-03-30T06:44:43;95779.75;;;7.86;100.00
5500;BME280;2772;42.700;23.304;2023-03-30T06:47:10;95775.19;;;7.92;100.00
5500;BME280;2772;42.700;23.304;2023-03-30T06:49:36;95780.72;;;8.00;100.00
5500;BME280;2772;42.700;23.304;2023-03-30T06:52:03;95792.34;;;8.09;100.00
5500;BME280;2772;42.700;23.304;2023-03-30T06:54:30;95795.88;;;7.95;100.00
5500;BME280;2772;42.700;23.304;2023-03-30T06:56:58;95783.38;;;8.05;100.00
5500;BME280;2772;42.700;23.304;2023-03-30T06:59:24;95782.75;;;8.13;100.00
5500;BME280;2772;42.700;23.304;2023-03-30T07:01:51;95782.50;;;8.15;100.00
5500;BME280;2772;42.700;23.304;2023-03-30T07:04:18;95789.06;;;8.33;100.00
5500;BME280;2772;42.700;23.304;2023-03-30T07:06:45;95790.06;;;8.42;100.00
5500;BME280;2772;42.700;23.304;2023-03-30T07:09:11;95795.28;;;8.57;100.00
5500;BME280;2772;42.700;23.304;2023-03-30T07:11:38;95786.41;;;8.71;100.00
5500;BME280;2772;42.700;23.304;2023-03-30T07:14:06;95794.06;;;8.78;100.00
5500;BME280;2772;42.700;23.304;2023-03-30T07:16:34;95802.47;;;8.90;100.00
5500;BME280;2772;42.700;23.304;2023-03-30T07:19:02;95802.41;;;8.95;100.00
5500;BME280;2772;42.700;23.304;2023-03-30T07:21:29;95792.03;;;8.98;100.00
5500;BME280;2772;42.700;23.304;2023-03-30T07:23:56;95808.16;;;9.07;100.00
5500;BME280;2772;42.700;23.304;2023-03-30T07:26:25;95807.34;;;9.11;100.00
5500;BME280;2772;42.700;23.304;2023-03-30T07:28:52;95815.19;;;9.21;100.00
5500;BME280;2772;42.700;23.304;2023-03-30T07:31:20;95796.50;;;9.31;100.00
5500;BME280;2772;42.700;23.304;2023-03-30T07:33:47;95797.84;;;9.29;100.00
5500;BME280;2772;42.700;23.304;2023-03-30T07:36:14;95801.31;;;9.29;100.00
5500;BME280;2772;42.700;23.304;2023-03-30T07:38:41;95793.91;;;9.26;100.00
5500;BME280;2772;42.700;23.304;2023-03-30T07:41:09;95808.59;;;9.19;100.00
5500;BME280;2772;42.700;23.304;2023-03-30T07:43:37;95796.53;;;8.98;100.00
5500;BME280;2772;42.700;23.304;2023-03-30T07:46:05;95792.31;;;9.25;100.00
5500;BME280;2772;42.700;23.304;2023-03-30T07:48:33;95802.84;;;9.35;100.00
5500;BME280;2772;42.700;23.304;2023-03-30T07:51:02;95785.47;;;9.43;100.00
5500;BME280;2772;42.700;23.304;2023-03-30T07:53:29;95789.00;;;9.62;100.00
5500;BME280;2772;42.700;23.304;2023-03-30T07:55:55;95798.91;;;9.80;100.00
5500;BME280;2772;42.700;23.304;2023-03-30T07:58:22;95792.78;;;9.80;99.21
5500;BME280;2772;42.700;23.304;2023-03-30T08:00:49;95799.56;;;9.91;97.71
5500;BME280;2772;42.700;23.304;2023-03-30T08:03:16;95792.78;;;10.03;100.00
5500;BME280;2772;42.700;23.304;2023-03-30T08:05:51;95789.59;;;10.25;100.00
5500;BME280;2772;42.700;23.304;2023-03-30T08:08:17;95790.31;;;10.30;100.00
5500;BME280;2772;42.700;23.304;2023-03-30T08:10:44;95795.50;;;10.40;99.88
5500;BME280;2772;42.700;23.304;2023-03-30T08:13:11;95792.13;;;10.53;100.00
5500;BME280;2772;42.700;23.304;2023-03-30T08:15:38;95781.53;;;10.67;99.83
5500;BME280;2772;42.700;23.304;2023-03-30T08:18:05;95788.78;;;10.80;97.12
5500;BME280;2772;42.700;23.304;2023-03-30T08:20:32;95784.63;;;11.06;95.76
5500;BME280;2772;42.700;23.304;2023-03-30T08:23:00;95776.94;;;11.18;91.94
5500;BME280;2772;42.700;23.304;2023-03-30T08:25:27;95772.63;;;11.36;92.51
5500;BME280;2772;42.700;23.304;2023-03-30T08:27:54;95775.00;;;11.37;87.81
5500;BME280;2772;42.700;23.304;2023-03-30T08:30:21;95774.84;;;11.47;88.25
5500;BME280;2772;42.700;23.304;2023-03-30T08:32:48;95777.97;;;11.36;87.19
5500;BME280;2772;42.700;23.304;2023-03-30T08:35:16;95771.56;;;11.50;87.59
5500;BME280;2772;42.700;23.304;2023-03-30T08:37:43;95768.56;;;11.38;82.77
5500;BME280;2772;42.700;23.304;2023-03-30T08:40:12;95773.66;;;11.40;84.24
5500;BME280;2772;42.700;23.304;2023-03-30T08:43:16;95773.16;;;11.51;86.85
5500;BME280;2772;42.700;23.304;2023-03-30T08:45:47;95771.31;;;11.79;87.36
5500;BME280;2772;42.700;23.304;2023-03-30T08:48:17;95775.84;;;11.92;83.31
5500;BME280;2772;42.700;23.304;2023-03-30T08:50:49;95781.06;;;12.10;79.68
5500;BME280;2772;42.700;23.304;2023-03-30T08:53:18;95774.63;;;12.25;77.91
5500;BME280;2772;42.700;23.304;2023-03-30T08:55:49;95763.66;;;12.26;78.42
5500;BME280;2772;42.700;23.304;2023-03-30T08:58:24;95768.88;;;12.31;73.88
5500;BME280;2772;42.700;23.304;2023-03-30T09:01:00;95764.41;;;12.40;75.92
5500;BME280;2772;42.700;23.304;2023-03-30T09:03:37;95754.13;;;12.34;72.07
5500;BME280;2772;42.700;23.304;2023-03-30T09:06:09;95753.03;;;12.35;73.89
5500;BME280;2772;42.700;23.304;2023-03-30T09:08:36;95749.28;;;12.36;73.30
5500;BME280;2772;42.700;23.304;2023-03-30T09:11:10;95748.72;;;12.25;73.42
5500;BME280;2772;42.700;23.304;2023-03-30T09:13:40;95746.00;;;12.39;75.15
5500;BME280;2772;42.700;23.304;2023-03-30T09:16:14;95739.69;;;12.57;74.23
5500;BME280;2772;42.700;23.304;2023-03-30T09:18:45;95741.00;;;12.82;74.03
5500;BME280;2772;42.700;23.304;2023-03-30T09:21:13;95739.97;;;12.91;71.46
5500;BME280;2772;42.700;23.304;2023-03-30T09:23:40;95741.72;;;12.51;69.05
5500;BME280;2772;42.700;23.304;2023-03-30T09:26:17;95735.63;;;12.37;75.21
5500;BME280;2772;42.700;23.304;2023-03-30T09:28:50;95734.84;;;12.37;63.23
5500;BME280;2772;42.700;23.304;2023-03-30T09:31:23;95727.56;;;12.15;61.61
5500;BME280;2772;42.700;23.304;2023-03-30T09:33:57;95721.44;;;12.15;62.36
5500;BME280;2772;42.700;23.304;2023-03-30T09:36:30;95716.38;;;12.27;66.61
5500;BME280;2772;42.700;23.304;2023-03-30T09:39:06;95719.72;;;12.32;63.81
5500;BME280;2772;42.700;23.304;2023-03-30T09:41:46;95718.09;;;12.45;62.79
5500;BME280;2772;42.700;23.304;2023-03-30T09:44:21;95715.34;;;12.58;61.02
5500;BME280;2772;42.700;23.304;2023-03-30T09:46:51;95714.16;;;12.64;58.52
5500;BME280;2772;42.700;23.304;2023-03-30T09:49:18;95708.03;;;12.64;57.86
5500;BME280;2772;42.700;23.304;2023-03-30T09:51:53;95710.94;;;12.76;59.04
5500;BME280;2772;42.700;23.304;2023-03-30T09:54:21;95704.31;;;12.96;59.03
5500;BME280;2772;42.700;23.304;2023-03-30T09:56:52;95703.44;;;13.09;58.88
5500;BME280;2772;42.700;23.304;2023-03-30T09:59:28;95716.16;;;13.03;56.74
5500;BME280;2772;42.700;23.304;2023-03-30T10:02:08;95708.47;;;12.88;56.37
5500;BME280;2772;42.700;23.304;2023-03-30T10:04:53;95697.69;;;12.71;59.94
5500;BME280;2772;42.700;23.304;2023-03-30T10:07:22;95705.03;;;12.88;58.55
5500;BME280;2772;42.700;23.304;2023-03-30T10:09:50;95702.56;;;12.91;56.56
5500;BME280;2772;42.700;23.304;2023-03-30T10:12:19;95703.75;;;13.07;58.14
5500;BME280;2772;42.700;23.304;2023-03-30T10:14:54;95699.41;;;13.20;57.16
5500;BME280;2772;42.700;23.304;2023-03-30T10:17:23;95697.44;;;13.34;57.63
5500;BME280;2772;42.700;23.304;2023-03-30T10:19:52;95694.31;;;13.40;56.94
5500;BME280;2772;42.700;23.304;2023-03-30T10:22:20;95687.09;;;13.41;57.70
5500;BME280;2772;42.700;23.304;2023-03-30T10:24:49;95683.47;;;13.45;56.40
5500;BME280;2772;42.700;23.304;2023-03-30T10:27:25;95688.38;;;13.13;54.99
5500;BME280;2772;42.700;23.304;2023-03-30T10:29:52;95678.00;;;12.89;56.14
5500;BME280;2772;42.700;23.304;2023-03-30T10:32:20;95666.88;;;12.96;56.97
5500;BME280;2772;42.700;23.304;2023-03-30T10:34:51;95669.28;;;13.06;55.78
5500;BME280;2772;42.700;23.304;2023-03-30T10:37:24;95669.69;;;12.99;56.56
5500;BME280;2772;42.700;23.304;2023-03-30T10:39:53;95674.41;;;13.24;58.23
5500;BME280;2772;42.700;23.304;2023-03-30T10:42:24;95669.91;;;13.33;54.49
5500;BME280;2772;42.700;23.304;2023-03-30T10:44:54;95672.47;;;13.55;53.47
5500;BME280;2772;42.700;23.304;2023-03-30T10:47:44;95662.63;;;13.81;54.92
5500;BME280;2772;42.700;23.304;2023-03-30T10:50:22;95656.34;;;13.94;53.26
5500;BME280;2772;42.700;23.304;2023-03-30T10:53:03;95649.91;;;13.95;53.14
5500;BME280;2772;42.700;23.304;2023-03-30T10:55:41;95649.25;;;13.90;52.43
5500;BME280;2772;42.700;23.304;2023-03-30T10:58:19;95632.41;;;13.89;52.14
5500;BME280;2772;42.700;23.304;2023-03-30T11:00:59;95642.31;;;13.89;53.54
5500;BME280;2772;42.700;23.304;2023-03-30T11:03:32;95635.88;;;14.15;54.66
5500;BME280;2772;42.700;23.304;2023-03-30T11:06:03;95634.63;;;14.21;52.59
5500;BME280;2772;42.700;23.304;2023-03-30T11:08:34;95628.50;;;14.29;52.06
5500;BME280;2772;42.700;23.304;2023-03-30T11:11:04;95628.81;;;14.28;51.44
5500;BME280;2772;42.700;23.304;2023-03-30T11:13:35;95625.59;;;13.83;50.81
5500;BME280;2772;42.700;23.304;2023-03-30T11:16:06;95619.47;;;13.91;51.44
5500;BME280;2772;42.700;23.304;2023-03-30T11:18:41;95619.19;;;14.01;52.16
5500;BME280;2772;42.700;23.304;2023-03-30T11:21:13;95618.69;;;13.99;50.58
5500;BME280;2772;42.700;23.304;2023-03-30T11:23:48;95611.28;;;13.96;51.17
5500;BME280;2772;42.700;23.304;2023-03-30T11:26:22;95615.75;;;14.26;51.82
5500;BME280;2772;42.700;23.304;2023-03-30T11:28:59;95625.00;;;14.12;49.73
5500;BME280;2772;42.700;23.304;2023-03-30T11:31:53;95603.28;;;14.05;51.50
5500;BME280;2772;42.700;23.304;2023-03-30T11:34:28;95602.94;;;13.98;50.77
5500;BME280;2772;42.700;23.304;2023-03-30T11:37:02;95594.28;;;14.01;50.33
5500;BME280;2772;42.700;23.304;2023-03-30T11:39:32;95598.22;;;13.95;50.19
5500;BME280;2772;42.700;23.304;2023-03-30T11:42:08;95602.00;;;13.85;50.00
5500;BME280;2772;42.700;23.304;2023-03-30T11:44:40;95589.09;;;13.87;49.93
5500;BME280;2772;42.700;23.304;2023-03-30T11:47:33;95582.75;;;14.00;50.63
5500;BME280;2772;42.700;23.304;2023-03-30T11:50:16;95578.34;;;13.96;50.01
5500;BME280;2772;42.700;23.304;2023-03-30T11:52:52;95578.22;;;14.01;50.65
5500;BME280;2772;42.700;23.304;2023-03-30T11:55:31;95582.63;;;14.05;50.02
5500;BME280;2772;42.700;23.304;2023-03-30T11:58:12;95583.09;;;14.16;49.42
5500;BME280;2772;42.700;23.304;2023-03-30T12:00:55;95568.59;;;14.17;49.06
5500;BME280;2772;42.700;23.304;2023-03-30T12:03:38;95566.06;;;14.12;49.27
5500;BME280;2772;42.700;23.304;2023-03-30T12:06:17;95561.84;;;14.11;49.44
5500;BME280;2772;42.700;23.304;2023-03-30T12:08:57;95556.13;;;14.21;49.41
5500;BME280;2772;42.700;23.304;2023-03-30T12:11:29;95537.56;;;14.24;48.39
5500;BME280;2772;42.700;23.304;2023-03-30T12:14:01;95542.59;;;14.17;48.68
5500;BME280;2772;42.700;23.304;2023-03-30T12:16:37;95535.34;;;14.18;48.65
5500;BME280;2772;42.700;23.304;2023-03-30T12:19:09;95536.78;;;14.15;48.75
5500;BME280;2772;42.700;23.304;2023-03-30T12:21:44;95520.06;;;14.18;49.80
5500;BME280;2772;42.700;23.304;2023-03-30T12:24:22;95519.44;;;14.30;49.67
5500;BME280;2772;42.700;23.304;2023-03-30T12:26:52;95524.88;;;14.51;49.66
5500;BME280;2772;42.700;23.304;2023-03-30T12:29:19;95508.53;;;14.44;48.38
5500;BME280;2772;42.700;23.304;2023-03-30T12:32:07;95514.78;;;14.56;48.14
5500;BME280;2772;42.700;23.304;2023-03-30T12:34:44;95501.81;;;14.67;48.30
5500;BME280;2772;42.700;23.304;2023-03-30T12:37:13;95493.75;;;14.75;48.11
5500;BME280;2772;42.700;23.304;2023-03-30T12:39:43;95498.81;;;14.68;48.17
5500;BME280;2772;42.700;23.304;2023-03-30T12:42:21;95491.72;;;14.64;47.79
5500;BME280;2772;42.700;23.304;2023-03-30T12:45:05;95492.16;;;14.74;47.63
5500;BME280;2772;42.700;23.304;2023-03-30T12:47:50;95487.44;;;14.71;47.92
5500;BME280;2772;42.700;23.304;2023-03-30T12:50:29;95471.13;;;14.85;48.65
5500;BME280;2772;42.700;23.304;2023-03-30T12:53:17;95471.13;;;14.85;47.50
5500;BME280;2772;42.700;23.304;2023-03-30T12:55:52;95485.78;;;14.87;47.25
5500;BME280;2772;42.700;23.304;2023-03-30T13:01:19;95459.88;;;14.91;47.83
5500;BME280;2772;42.700;23.304;2023-03-30T13:03:51;95467.94;;;14.91;46.47
5500;BME280;2772;42.700;23.304;2023-03-30T13:06:24;95455.81;;;14.85;46.32
5500;BME280;2772;42.700;23.304;2023-03-30T13:08:56;95455.34;;;14.83;46.43
5500;BME280;2772;42.700;23.304;2023-03-30T13:11:43;95450.84;;;14.75;46.52
5500;BME280;2772;42.700;23.304;2023-03-30T13:14:25;95437.44;;;14.75;46.60
5500;BME280;2772;42.700;23.304;2023-03-30T13:17:09;95439.78;;;14.77;46.91
5500;BME280;2772;42.700;23.304;2023-03-30T13:19:43;95428.19;;;14.85;46.48
5500;BME280;2772;42.700;23.304;2023-03-30T13:22:26;95427.84;;;14.95;45.91
5500;BME280;2772;42.700;23.304;2023-03-30T13:24:54;95424.47;;;15.06;45.89
5500;BME280;2772;42.700;23.304;2023-03-30T13:27:26;95418.63;;;15.25;46.60
5500;BME280;2772;42.700;23.304;2023-03-30T13:29:55;95423.75;;;15.38;45.19
5500;BME280;2772;42.700;23.304;2023-03-30T13:32:32;95406.00;;;15.46;45.68
5500;BME280;2772;42.700;23.304;2023-03-30T13:35:24;95401.94;;;15.60;44.58
5500;BME280;2772;42.700;23.304;2023-03-30T13:38:10;95394.75;;;15.52;44.47